Time;durP1;ratioP1;P1;durP2;ratioP2;P2;SDS_P1;SDS_P2;PMS_P1;PMS_P2;Temp;Humidity;BMP_temperature;BMP_pressure;BME280_temperature;BME280_humidity;BME280_pressure;Samples;Min_cycle;Max_cycle;Signal;HPM_P1;HPM_P2
2022/09/13 00:01:04;;;;;;;3.05;2.45;;;;;;;14.02;78.07;94457.19;5130994;27;20209;-73
2022/09/13 00:03:32;;;;;;;7.43;2.42;;;;;;;14.08;78.11;94461.22;5130508;27;20675;-73
2022/09/13 00:06:06;;;;;;;5.03;2.75;;;;;;;14.00;78.39;94462.19;5130404;27;20222;-73
2022/09/13 00:08:34;;;;;;;6.03;2.65;;;;;;;13.88;79.02;94448.69;5130151;27;20192;-73
2022/09/13 00:11:01;;;;;;;3.17;2.42;;;;;;;13.97;78.69;94457.47;5130611;27;20281;-73
2022/09/13 00:13:28;;;;;;;2.70;2.35;;;;;;;14.09;78.28;94446.47;5130885;27;20221;-72
2022/09/13 00:15:55;;;;;;;3.47;2.78;;;;;;;14.06;78.32;94449.91;5130036;28;20245;-72
2022/09/13 00:18:22;;;;;;;5.18;2.80;;;;;;;14.08;78.72;94438.63;5130652;28;20209;-73
2022/09/13 00:20:49;;;;;;;4.22;2.83;;;;;;;14.09;78.41;94432.84;5130476;27;20581;-72
2022/09/13 00:23:15;;;;;;;6.72;3.22;;;;;;;14.17;78.37;94433.81;5130584;28;20205;-72
2022/09/13 00:25:43;;;;;;;4.15;3.00;;;;;;;14.12;78.56;94432.13;5130466;28;20189;-73
2022/09/13 00:28:10;;;;;;;3.40;2.10;;;;;;;14.22;78.17;94437.03;5131067;28;20779;-74
2022/09/13 00:30:37;;;;;;;4.75;2.72;;;;;;;14.29;77.87;94432.91;5130659;28;20722;-73
2022/09/13 00:33:04;;;;;;;7.68;2.75;;;;;;;14.35;77.52;94429.53;5130529;27;20581;-72
2022/09/13 00:35:31;;;;;;;4.80;2.88;;;;;;;14.41;77.34;94432.81;5119705;27;20215;-75
2022/09/13 00:38:00;;;;;;;4.28;2.70;;;;;;;14.44;77.39;94423.91;5135019;27;20201;-72
2022/09/13 00:40:27;;;;;;;7.75;3.42;;;;;;;14.45;77.28;94423.56;5121418;27;20274;-75
2022/09/13 00:42:55;;;;;;;4.70;2.78;;;;;;;14.56;76.88;94423.78;5134710;27;20236;-73
2022/09/13 00:45:22;;;;;;;5.05;2.85;;;;;;;14.61;76.72;94420.78;5134698;27;20962;-73
2022/09/13 00:47:54;;;;;;;4.03;2.85;;;;;;;14.68;76.47;94431.81;5133921;27;20249;-74
2022/09/13 00:50:25;;;;;;;3.95;2.72;;;;;;;14.72;76.09;94421.00;5134178;27;20189;-74
2022/09/13 00:52:57;;;;;;;4.40;2.72;;;;;;;14.78;75.98;94425.78;5133948;27;20208;-71
2022/09/13 00:55:27;;;;;;;2.78;1.98;;;;;;;14.76;75.76;94411.72;5134725;27;20201;-76
2022/09/13 00:58:00;;;;;;;4.32;2.83;;;;;;;14.79;75.88;94421.13;5134272;27;20741;-72
2022/09/13 01:00:27;;;;;;;3.83;2.78;;;;;;;14.80;75.81;94417.25;5134414;27;20216;-72
2022/09/13 01:02:58;;;;;;;4.15;2.70;;;;;;;14.83;75.75;94422.78;5134891;27;20780;-72
2022/09/13 01:05:28;;;;;;;4.45;2.92;;;;;;;14.86;75.72;94415.84;5134662;27;20201;-73
2022/09/13 01:07:56;;;;;;;4.47;2.80;;;;;;;14.83;75.59;94419.28;5134449;27;20209;-73
2022/09/13 01:10:23;;;;;;;3.33;2.10;;;;;;;14.85;75.68;94420.50;5133952;27;20265;-74
2022/09/13 01:12:56;;;;;;;3.90;2.40;;;;;;;14.89;75.26;94415.13;5134007;27;20211;-71
2022/09/13 01:15:24;;;;;;;3.83;2.33;;;;;;;14.91;74.98;94413.59;5134337;27;20197;-71
2022/09/13 01:17:53;;;;;;;4.53;2.45;;;;;;;14.97;75.04;94410.59;5134035;27;20201;-73
2022/09/13 01:20:22;;;;;;;4.35;3.20;;;;;;;14.98;75.13;94418.41;5134307;27;20197;-73
2022/09/13 01:23:24;;;;;;;3.97;2.78;;;;;;;14.90;75.09;94417.47;5133982;27;20258;-72
2022/09/13 01:26:15;;;;;;;2.75;1.85;;;;;;;14.88;75.17;94408.09;5134368;27;20233;-73
2022/09/13 01:29:08;;;;;;;3.97;2.70;;;;;;;14.87;75.16;94412.75;5131018;27;20193;-73
2022/09/13 01:31:46;;;;;;;3.85;2.30;;;;;;;14.88;75.00;94408.88;5134202;27;20217;-73
2022/09/13 01:34:28;;;;;;;3.92;2.50;;;;;;;14.92;74.86;94408.94;5135044;27;20985;-72
2022/09/13 01:37:22;;;;;;;4.38;2.75;;;;;;;14.92;75.01;94406.19;5136464;27;20655;-73
2022/09/13 01:40:02;;;;;;;6.50;2.53;;;;;;;14.92;74.82;94406.19;5133958;27;20604;-72
2022/09/13 01:42:41;;;;;;;2.47;1.70;;;;;;;14.92;74.82;94404.25;5133934;27;20185;-73
2022/09/13 01:45:21;;;;;;;4.40;2.92;;;;;;;14.91;75.17;94402.69;5133504;27;20272;-72
2022/09/13 01:47:55;;;;;;;4.15;2.25;;;;;;;14.86;75.22;94405.72;5129167;27;20194;-73
2022/09/13 01:50:32;;;;;;;3.63;2.53;;;;;;;14.85;75.24;94398.69;5133035;27;20709;-72
2022/09/13 01:53:03;;;;;;;3.30;2.58;;;;;;;14.79;75.60;94405.56;5133101;27;20201;-74
2022/09/13 01:55:35;;;;;;;6.90;3.03;;;;;;;14.73;75.90;94407.00;5132851;27;20186;-72
2022/09/13 01:58:13;;;;;;;3.15;2.53;;;;;;;14.65;75.75;94394.38;5133292;27;20205;-73
2022/09/13 02:00:47;;;;;;;3.83;2.38;;;;;;;14.68;76.09;94404.56;5133636;27;20258;-73
2022/09/13 02:03:20;;;;;;;5.53;2.67;;;;;;;14.64;76.00;94400.97;5120640;27;20221;-73
2022/09/13 02:05:52;;;;;;;18.10;1.90;;;;;;;14.64;75.96;94403.69;5133460;27;20200;-73
2022/09/13 02:08:26;;;;;;;3.63;2.47;;;;;;;14.60;76.26;94397.41;5133180;27;20185;-74
2022/09/13 02:10:58;;;;;;;4.80;2.70;;;;;;;14.55;76.37;94394.94;5132841;27;20189;-72
2022/09/13 02:13:29;;;;;;;4.38;2.55;;;;;;;14.58;76.23;94399.69;5132617;27;20719;-73
2022/09/13 02:16:01;;;;;;;6.32;2.80;;;;;;;14.58;76.27;94397.75;5132845;27;20922;-73
2022/09/13 02:18:34;;;;;;;3.30;2.42;;;;;;;14.52;76.47;94395.66;5132985;27;20201;-72
2022/09/13 02:21:11;;;;;;;3.25;2.45;;;;;;;14.48;76.54;94400.25;5119353;27;20212;-72
2022/09/13 02:23:43;;;;;;;3.42;2.35;;;;;;;14.44;76.62;94393.94;5132947;27;20693;-77
2022/09/13 02:26:13;;;;;;;3.70;2.85;;;;;;;14.39;76.90;94391.47;5132580;27;20224;-73
2022/09/13 02:28:47;;;;;;;2.97;2.22;;;;;;;14.27;77.37;94388.88;5132851;27;20332;-73
2022/09/13 02:31:19;;;;;;;5.10;3.20;;;;;;;14.28;77.19;94401.34;5132691;27;20265;-73
2022/09/13 02:33:52;;;;;;;7.22;3.17;;;;;;;14.17;77.73;94395.66;5132668;27;20281;-73
2022/09/13 02:36:24;;;;;;;3.83;2.80;;;;;;;14.07;78.02;94399.75;5132464;27;20700;-73
2022/09/13 02:38:55;;;;;;;3.13;2.38;;;;;;;14.07;78.11;94397.00;5111994;28;20692;-75
2022/09/13 02:41:28;;;;;;;3.15;2.53;;;;;;;14.00;78.21;94399.56;5127280;27;20636;-73
2022/09/13 02:44:01;;;;;;;7.03;2.72;;;;;;;13.95;78.74;94399.81;5132420;27;20189;-73
2022/09/13 02:46:44;;;;;;;4.53;2.50;;;;;;;13.91;79.10;94398.97;5132670;27;20722;-73
2022/09/13 02:49:23;;;;;;;4.50;2.25;;;;;;;13.83;79.40;94403.44;5131982;27;20289;-74
2022/09/13 02:51:55;;;;;;;3.03;2.08;;;;;;;13.72;79.64;94398.91;5119257;27;20212;-73
2022/09/13 02:54:30;;;;;;;8.10;2.80;;;;;;;13.71;79.81;94405.47;5132663;27;20201;-73
2022/09/13 02:57:01;;;;;;;5.65;2.78;;;;;;;13.67;80.14;94401.88;5131996;27;20211;-73
2022/09/13 02:59:28;;;;;;;4.18;2.42;;;;;;;13.68;79.92;94406.19;5131996;27;20269;-73
2022/09/13 03:01:59;;;;;;;7.65;2.83;;;;;;;13.62;80.32;94404.88;5131817;27;20204;-74
2022/09/13 03:04:28;;;;;;;2.90;2.20;;;;;;;13.59;80.18;94408.31;5132008;27;20188;-73
2022/09/13 03:06:55;;;;;;;3.95;2.25;;;;;;;13.58;80.18;94412.94;5132025;27;20197;-73
2022/09/13 03:09:23;;;;;;;3.25;2.53;;;;;;;13.49;80.69;94404.97;5132333;27;20208;-73
2022/09/13 03:12:04;;;;;;;3.53;2.40;;;;;;;13.40;80.97;94412.50;5132095;27;20228;-73
2022/09/13 03:14:43;;;;;;;8.82;2.45;;;;;;;13.40;81.31;94417.16;5118706;27;20216;-73
2022/09/13 03:17:35;;;;;;;4.28;2.70;;;;;;;13.37;81.49;94418.66;5131486;27;20238;-73
2022/09/13 03:20:12;;;;;;;4.40;2.50;;;;;;;13.39;80.96;94410.91;5131847;27;20262;-73
2022/09/13 03:22:58;;;;;;;3.67;2.60;;;;;;;13.38;81.29;94409.38;5118083;27;20197;-73
2022/09/13 03:25:37;;;;;;;4.55;2.60;;;;;;;13.48;80.80;94408.03;5131823;27;20242;-73
2022/09/13 03:28:16;;;;;;;5.38;2.72;;;;;;;13.48;80.49;94403.41;5131611;27;20189;-75
2022/09/13 03:30:49;;;;;;;2.78;1.90;;;;;;;13.51;80.12;94402.69;5118178;27;20274;-74
2022/09/13 03:33:25;;;;;;;2.90;2.55;;;;;;;13.49;80.27;94404.97;5131256;27;20265;-73
2022/09/13 03:35:57;;;;;;;5.43;2.38;;;;;;;13.52;80.05;94412.44;5131622;27;20196;-73
2022/09/13 03:38:32;;;;;;;3.70;2.30;;;;;;;13.61;79.69;94411.47;5131356;27;20577;-74
2022/09/13 03:41:04;;;;;;;4.47;2.40;;;;;;;13.60;79.53;94404.44;5131353;27;20192;-73
2022/09/13 03:43:38;;;;;;;6.00;2.45;;;;;;;13.61;79.02;94412.25;5131518;27;20636;-73
2022/09/13 03:46:09;;;;;;;4.57;2.30;;;;;;;13.67;78.86;94412.75;5131456;27;20200;-74
2022/09/13 03:48:39;;;;;;;2.72;2.25;;;;;;;13.63;78.83;94406.47;5131201;27;20772;-73
2022/09/13 03:51:10;;;;;;;4.30;2.53;;;;;;;13.57;79.32;94405.94;5130641;27;20208;-74
2022/09/13 03:53:42;;;;;;;10.45;2.33;;;;;;;13.52;78.81;94409.72;5131249;27;20205;-78
2022/09/13 03:56:14;;;;;;;3.42;2.65;;;;;;;13.56;78.66;94406.28;5131347;27;20189;-72
2022/09/13 03:58:42;;;;;;;5.60;2.42;;;;;;;13.53;78.52;94410.50;5130732;27;20710;-73
2022/09/13 04:01:10;;;;;;;3.25;2.40;;;;;;;13.42;79.04;94410.22;5131388;27;20201;-72
2022/09/13 04:03:36;;;;;;;5.07;2.38;;;;;;;13.37;79.16;94407.00;5130942;27;20285;-73
2022/09/13 04:06:04;;;;;;;3.92;2.83;;;;;;;13.43;78.62;94411.81;5130604;27;20510;-73
2022/09/13 04:08:32;;;;;;;3.88;2.58;;;;;;;13.36;78.64;94422.53;5130831;27;20656;-74
2022/09/13 04:11:00;;;;;;;3.40;2.35;;;;;;;13.30;78.96;94418.47;5130475;27;20212;-73
2022/09/13 04:13:27;;;;;;;9.00;2.15;;;;;;;13.25;79.26;94426.91;5130765;27;20241;-75
2022/09/13 04:15:54;;;;;;;4.15;2.40;;;;;;;13.26;79.11;94417.56;5130863;27;20254;-72
2022/09/13 04:18:20;;;;;;;3.22;2.45;;;;;;;13.20;79.35;94410.84;5130791;28;20200;-76
2022/09/13 04:20:54;;;;;;;4.90;2.58;;;;;;;13.43;78.68;94417.25;5131171;27;20250;-70
2022/09/13 04:23:20;;;;;;;4.85;2.40;;;;;;;13.93;76.84;94412.25;5130608;27;20200;-72
2022/09/13 04:25:50;;;;;;;3.20;2.40;;;;;;;14.30;74.72;94412.69;5130537;28;20201;-73
2022/09/13 04:28:17;;;;;;;2.97;2.08;;;;;;;14.12;75.01;94415.00;5130438;28;20512;-75
2022/09/13 04:30:44;;;;;;;3.67;2.30;;;;;;;13.86;76.07;94412.84;5130846;27;20208;-75
2022/09/13 04:33:12;;;;;;;2.92;2.35;;;;;;;13.75;76.84;94428.16;5130401;28;20324;-75
2022/09/13 04:35:39;;;;;;;6.22;2.70;;;;;;;14.53;74.37;94419.03;5130313;28;20216;-75
2022/09/13 04:38:07;;;;;;;6.53;2.65;;;;;;;15.48;70.56;94417.38;5130178;28;20229;-75
2022/09/13 04:40:34;;;;;;;3.83;2.03;;;;;;;15.94;68.41;94409.19;5129788;28;20193;-77
2022/09/13 04:43:03;;;;;;;3.35;2.17;;;;;;;16.57;66.49;94424.94;5126865;28;20193;-74
2022/09/13 04:45:30;;;;;;;2.65;1.95;;;;;;;17.12;64.15;94422.53;5128045;28;20197;-74
2022/09/13 04:47:57;;;;;;;3.83;2.78;;;;;;;17.50;62.68;94402.19;5129653;28;20204;-75
2022/09/13 04:50:25;;;;;;;8.15;3.60;;;;;;;17.06;63.65;94424.81;5130369;28;20225;-77
2022/09/13 04:52:55;;;;;;;6.20;2.35;;;;;;;17.90;61.38;94418.66;5129733;28;20264;-75
2022/09/13 04:55:24;;;;;;;2.70;2.10;;;;;;;18.02;60.26;94420.31;5122804;28;20201;-77
2022/09/13 04:57:54;;;;;;;4.85;2.00;;;;;;;19.01;57.32;94411.91;5129688;27;20223;-74
2022/09/13 05:00:24;;;;;;;3.30;2.28;;;;;;;19.38;56.55;94417.13;5130217;28;20486;-75
2022/09/13 05:02:55;;;;;;;2.53;2.10;;;;;;;18.66;57.44;94431.72;5129588;28;20670;-77
2022/09/13 05:05:21;;;;;;;4.25;3.17;;;;;;;19.83;55.30;94421.94;5126658;27;20603;-74
2022/09/13 05:07:50;;;;;;;3.80;2.92;;;;;;;19.79;54.76;94415.66;5126720;28;20213;-73
2022/09/13 05:10:17;;;;;;;3.40;2.72;;;;;;;19.78;54.32;94408.59;5129412;27;20340;-73
2022/09/13 05:12:43;;;;;;;4.72;2.33;;;;;;;20.58;52.70;94425.47;5129427;28;20231;-75
2022/09/13 05:15:11;;;;;;;4.45;1.95;;;;;;;20.46;52.53;94414.91;5129728;28;20254;-74
2022/09/13 05:17:39;;;;;;;6.22;2.33;;;;;;;21.98;49.76;94418.97;5129625;28;20241;-71
2022/09/13 05:20:07;;;;;;;5.70;2.90;;;;;;;21.09;50.27;94413.13;5129392;27;20250;-72
2022/09/13 05:22:34;;;;;;;2.17;1.65;;;;;;;21.21;50.04;94409.94;5133162;27;20709;-73
2022/09/13 05:25:00;;;;;;;5.18;2.38;;;;;;;21.70;49.54;94408.13;5133138;27;20211;-74
2022/09/13 05:27:27;;;;;;;3.45;2.10;;;;;;;21.03;50.88;94413.97;5132632;27;20200;-73
2022/09/13 05:29:54;;;;;;;5.32;2.80;;;;;;;22.08;48.67;94400.78;5133222;27;20256;-73
2022/09/13 05:32:22;;;;;;;4.40;3.30;;;;;;;23.16;46.35;94402.09;5132432;27;20442;-73
2022/09/13 05:34:50;;;;;;;3.72;2.90;;;;;;;21.84;48.13;94419.06;5132537;27;20205;-73
2022/09/13 05:37:18;;;;;;;3.45;2.70;;;;;;;22.31;47.54;94408.47;5132364;27;20225;-74
2022/09/13 05:39:45;;;;;;;4.47;2.58;;;;;;;23.47;45.55;94404.84;5132694;27;20720;-73
2022/09/13 05:42:11;;;;;;;4.60;2.70;;;;;;;23.60;44.47;94406.66;5132790;27;20717;-72
2022/09/13 05:44:38;;;;;;;3.40;2.60;;;;;;;22.21;46.95;94403.84;5132733;27;20246;-71
2022/09/13 05:47:05;;;;;;;3.40;2.38;;;;;;;21.94;47.97;94418.19;5132013;27;20665;-76
2022/09/13 05:49:32;;;;;;;5.13;2.42;;;;;;;21.26;49.22;94417.03;5131717;27;20323;-74
2022/09/13 05:52:01;;;;;;;5.25;2.88;;;;;;;20.89;49.92;94420.31;5131593;27;20212;-73
2022/09/13 05:54:28;;;;;;;5.03;2.30;;;;;;;20.01;51.34;94418.41;5131449;27;20201;-71
2022/09/13 05:56:56;;;;;;;5.63;2.53;;;;;;;20.58;50.23;94411.72;5132522;27;20221;-72
2022/09/13 05:59:23;;;;;;;3.55;2.45;;;;;;;19.70;53.15;94423.50;5131975;27;20209;-74
2022/09/13 06:01:50;;;;;;;5.00;2.53;;;;;;;20.74;51.06;94411.28;5132199;27;20208;-74
2022/09/13 06:04:16;;;;;;;4.05;2.42;;;;;;;20.11;52.12;94420.38;5132035;27;20201;-78
2022/09/13 06:06:43;;;;;;;5.50;2.20;;;;;;;19.79;52.63;94420.38;5131548;27;20265;-74
2022/09/13 06:09:13;;;;;;;5.70;2.55;;;;;;;20.48;51.19;94429.03;5122196;27;20265;-74
2022/09/13 06:11:40;;;;;;;2.60;2.10;;;;;;;21.49;49.50;94425.56;5132054;27;20266;-74
2022/09/13 06:14:08;;;;;;;4.95;2.42;;;;;;;21.34;48.65;94428.78;5131837;27;20738;-78
2022/09/13 06:16:35;;;;;;;2.78;2.10;;;;;;;20.61;50.40;94421.16;5132107;27;20219;-74
2022/09/13 06:19:03;;;;;;;3.28;2.22;;;;;;;21.13;49.00;94430.44;5132213;27;20563;-76
2022/09/13 06:21:29;;;;;;;4.18;2.53;;;;;;;20.99;49.83;94438.75;5132486;27;20209;-75
2022/09/13 06:23:56;;;;;;;4.10;2.63;;;;;;;20.54;50.66;94432.94;5132092;27;20197;-77
2022/09/13 06:26:26;;;;;;;3.92;2.40;;;;;;;21.02;50.35;94429.69;5131499;27;20201;-76
2022/09/13 06:28:55;;;;;;;3.05;2.38;;;;;;;20.27;52.00;94434.53;5132229;27;20292;-75
2022/09/13 06:31:24;;;;;;;6.88;2.60;;;;;;;20.88;50.99;94435.25;5131604;27;20212;-75
2022/09/13 06:33:56;;;;;;;7.00;1.70;;;;;;;20.93;49.80;94437.56;5129636;27;20237;-74
2022/09/13 06:36:24;;;;;;;5.72;2.63;;;;;;;20.89;49.65;94442.34;5132222;27;20572;-78
2022/09/13 06:38:51;;;;;;;4.53;2.50;;;;;;;20.21;52.37;94447.13;5131391;27;20625;-79
2022/09/13 06:41:19;;;;;;;4.25;2.80;;;;;;;21.02;51.67;94442.69;5131708;27;20201;-74
2022/09/13 06:43:53;;;;;;;4.25;2.97;;;;;;;20.81;50.89;94440.75;5131380;27;20197;-73
2022/09/13 06:46:20;;;;;;;3.60;2.85;;;;;;;20.28;51.83;94446.31;5131970;27;20212;-79
2022/09/13 06:48:47;;;;;;;4.30;2.33;;;;;;;19.80;52.50;94450.22;5131482;27;20666;-73
2022/09/13 06:51:16;;;;;;;2.22;1.45;;;;;;;20.28;52.13;94458.09;5131293;27;20197;-77
2022/09/13 06:53:45;;;;;;;2.53;1.77;;;;;;;20.95;51.02;94457.25;5130386;27;20305;-73
2022/09/13 06:56:14;;;;;;;2.15;1.27;;;;;;;20.71;51.06;94458.09;5130201;27;20228;-74
2022/09/13 06:58:42;;;;;;;3.60;2.22;;;;;;;20.50;52.98;94473.44;5131371;27;20624;-74
2022/09/13 07:01:13;;;;;;;3.00;2.50;;;;;;;20.56;51.85;94462.84;5131618;27;20239;-73
2022/09/13 07:03:42;;;;;;;2.65;1.77;;;;;;;20.55;52.03;94459.28;5131449;27;20205;-77
2022/09/13 07:06:14;;;;;;;3.08;2.10;;;;;;;20.29;53.13;94470.69;5131184;27;20652;-76
2022/09/13 07:08:42;;;;;;;2.25;1.65;;;;;;;19.10;55.79;94473.53;5131541;27;20586;-75
2022/09/13 07:11:10;;;;;;;6.00;2.35;;;;;;;19.29;55.54;94477.91;5131094;27;20227;-73
2022/09/13 07:13:37;;;;;;;2.65;2.08;;;;;;;18.64;56.56;94472.47;5130354;27;20265;-76
2022/09/13 07:16:06;;;;;;;2.88;1.20;;;;;;;18.32;57.72;94474.97;5130598;27;20281;-78
2022/09/13 07:18:35;;;;;;;1.83;1.67;;;;;;;18.84;56.71;94473.00;5130937;27;20262;-78
2022/09/13 07:21:03;;;;;;;4.15;2.03;;;;;;;18.98;55.82;94484.84;5130916;27;20208;-73
2022/09/13 07:23:32;;;;;;;2.42;1.50;;;;;;;18.81;55.33;94477.31;5130808;27;20209;-73
2022/09/13 07:26:03;;;;;;;3.08;1.50;;;;;;;19.33;54.24;94475.19;5130739;27;20208;-76
2022/09/13 07:28:32;;;;;;;2.85;1.98;;;;;;;19.67;54.33;94473.78;5130486;27;20200;-75
2022/09/13 07:31:05;;;;;;;4.35;2.40;;;;;;;20.12;52.65;94471.47;5130873;27;20201;-74
2022/09/13 07:33:34;;;;;;;2.20;1.80;;;;;;;19.35;53.93;94479.13;5130928;27;20224;-75
2022/09/13 07:36:05;;;;;;;2.00;1.67;;;;;;;18.77;54.85;94480.00;5130390;27;21013;-76
2022/09/13 07:38:32;;;;;;;2.65;1.65;;;;;;;19.61;53.09;94485.50;5130324;27;20675;-74
2022/09/13 07:41:00;;;;;;;4.18;1.83;;;;;;;19.71;52.50;94479.25;5130513;27;20201;-77
2022/09/13 07:43:27;;;;;;;2.75;1.70;;;;;;;19.59;51.79;94482.38;5130502;27;20204;-73
2022/09/13 07:45:58;;;;;;;5.15;2.00;;;;;;;19.60;52.64;94473.72;5130355;27;20201;-74
2022/09/13 07:48:27;;;;;;;3.55;2.20;;;;;;;18.99;54.46;94486.44;5130668;27;20240;-74
2022/09/13 07:50:59;;;;;;;2.72;2.25;;;;;;;19.01;54.78;94481.31;5130477;27;20236;-74
2022/09/13 07:53:27;;;;;;;1.63;1.35;;;;;;;18.58;54.12;94495.94;5130614;27;20611;-74
2022/09/13 07:55:53;;;;;;;2.05;1.63;;;;;;;18.71;54.13;94495.28;5130465;27;20434;-77
2022/09/13 07:58:20;;;;;;;1.50;1.25;;;;;;;19.11;52.60;94491.59;5130095;27;20209;-78
2022/09/13 08:00:47;;;;;;;1.30;1.20;;;;;;;19.47;50.89;94486.22;5130303;27;20656;-73
2022/09/13 08:03:14;;;;;;;2.50;1.80;;;;;;;19.39;51.44;94490.13;5130672;27;20211;-74
2022/09/13 08:05:41;;;;;;;4.72;2.40;;;;;;;19.44;51.96;94492.50;5130138;27;20216;-78
2022/09/13 08:08:11;;;;;;;4.30;2.30;;;;;;;18.99;53.34;94497.41;5129942;27;20197;-76
2022/09/13 08:10:38;;;;;;;4.90;1.80;;;;;;;19.30;53.41;94495.19;5129945;27;20221;-77
2022/09/13 08:13:05;;;;;;;2.20;1.73;;;;;;;19.06;53.41;94489.19;5129689;27;20764;-74
2022/09/13 08:15:32;;;;;;;2.50;1.63;;;;;;;19.22;51.85;94490.84;5129832;27;20659;-76
2022/09/13 08:17:59;;;;;;;2.42;1.98;;;;;;;19.12;50.00;94495.91;5130186;27;20200;-74
2022/09/13 08:20:26;;;;;;;2.90;1.55;;;;;;;19.42;49.70;94489.34;5129537;27;20282;-75
2022/09/13 08:22:52;;;;;;;2.75;2.22;;;;;;;19.87;50.35;94487.94;5129392;27;20277;-75
2022/09/13 08:25:21;;;;;;;2.92;1.67;;;;;;;20.24;49.17;94487.56;5129332;28;20719;-75
2022/09/13 08:27:48;;;;;;;1.73;1.48;;;;;;;20.16;48.87;94483.25;5129882;28;20196;-75
2022/09/13 08:30:15;;;;;;;1.88;1.60;;;;;;;19.89;49.31;94485.59;5129762;28;20250;-75
2022/09/13 08:32:44;;;;;;;2.22;1.45;;;;;;;19.48;49.84;94483.09;5130184;27;20331;-74
2022/09/13 08:35:11;;;;;;;1.65;1.40;;;;;;;19.95;48.90;94483.25;5129739;28;20243;-74
2022/09/13 08:37:38;;;;;;;2.80;1.80;;;;;;;19.84;48.41;94478.50;5129995;28;20761;-76
2022/09/13 08:40:06;;;;;;;1.70;1.60;;;;;;;20.23;47.49;94475.00;5129444;28;20265;-75
2022/09/13 08:42:50;;;;;;;3.53;1.85;;;;;;;20.38;48.14;94476.59;5129668;28;20201;-75
2022/09/13 08:45:17;;;;;;;1.85;1.50;;;;;;;20.38;43.77;94473.06;5130168;28;20205;-74
2022/09/13 08:47:50;;;;;;;1.77;1.58;;;;;;;19.88;45.64;94482.03;5130107;28;20215;-76
2022/09/13 08:50:22;;;;;;;2.13;1.48;;;;;;;19.94;45.57;94482.47;5130231;28;20192;-75
2022/09/13 08:52:59;;;;;;;1.45;1.30;;;;;;;20.37;42.58;94464.03;5129915;27;20690;-74
2022/09/13 08:55:37;;;;;;;0.98;0.95;;;;;;;20.19;44.08;94465.97;5131208;27;20538;-75
2022/09/13 08:58:18;;;;;;;2.63;1.40;;;;;;;20.00;43.93;94474.59;5134114;27;20368;-75
2022/09/13 09:00:50;;;;;;;3.33;1.73;;;;;;;19.76;45.08;94471.44;5132986;27;20193;-74
2022/09/13 09:03:27;;;;;;;1.83;1.67;;;;;;;19.88;44.21;94468.31;5133819;27;20565;-73
2022/09/13 09:05:54;;;;;;;1.00;0.90;;;;;;;20.05;42.96;94465.97;5133640;27;20246;-77
2022/09/13 09:08:31;;;;;;;2.15;1.50;;;;;;;19.98;44.40;94463.97;5133742;27;20205;-73
2022/09/13 09:11:03;;;;;;;3.00;1.40;;;;;;;20.82;44.09;94475.38;5133330;27;20224;-75
2022/09/13 09:13:35;;;;;;;2.45;1.80;;;;;;;21.03;42.78;94456.06;5133889;27;20640;-74
2022/09/13 09:16:07;;;;;;;2.00;1.65;;;;;;;21.69;42.06;94461.69;5133410;27;20258;-74
2022/09/13 09:18:38;;;;;;;2.10;1.40;;;;;;;21.37;41.49;94467.38;5133338;27;20610;-74
2022/09/13 09:21:15;;;;;;;2.08;1.48;;;;;;;20.57;42.06;94476.22;5133493;27;20269;-74
2022/09/13 09:23:49;;;;;;;3.03;1.60;;;;;;;21.17;42.73;94472.53;5133767;27;20200;-74
2022/09/13 09:26:18;;;;;;;3.38;1.60;;;;;;;20.67;44.25;94476.56;5132900;27;20207;-74
2022/09/13 09:28:53;;;;;;;2.63;1.70;;;;;;;21.06;42.66;94462.72;5132755;27;20252;-74
2022/09/13 09:31:31;;;;;;;2.38;1.98;;;;;;;21.12;42.26;94466.66;5132578;27;20264;-74
2022/09/13 09:34:08;;;;;;;1.92;1.70;;;;;;;20.28;44.14;94463.59;5132872;27;20724;-75
2022/09/13 09:36:42;;;;;;;1.80;1.50;;;;;;;20.00;43.98;94469.09;5133332;27;20277;-75
2022/09/13 09:39:12;;;;;;;2.60;1.50;;;;;;;19.71;44.32;94466.28;5132856;27;20204;-74
2022/09/13 09:41:40;;;;;;;1.85;1.50;;;;;;;19.64;43.84;94457.25;5132940;27;20311;-76
2022/09/13 09:44:17;;;;;;;1.70;1.60;;;;;;;20.32;43.61;94447.91;5133346;27;20280;-74
2022/09/13 09:46:48;;;;;;;2.97;1.70;;;;;;;20.72;42.83;94445.91;5132774;27;20245;-74
2022/09/13 09:52:21;;;;;;;3.50;1.73;;;;;;;21.42;41.97;94436.63;5079725;28;20207;-74
2022/09/13 09:54:50;;;;;;;2.05;1.70;;;;;;;22.11;40.34;94440.56;5123649;27;20275;-75
2022/09/13 09:57:19;;;;;;;2.53;1.77;;;;;;;22.49;41.32;94430.41;5132880;27;20274;-75
2022/09/13 09:59:47;;;;;;;8.27;2.05;;;;;;;22.21;41.59;94439.69;5132406;27;20204;-74
2022/09/13 10:02:17;;;;;;;2.03;1.63;;;;;;;22.13;41.08;94438.19;5132166;27;20205;-76
2022/09/13 10:04:55;;;;;;;1.95;1.70;;;;;;;21.68;41.58;94438.06;5132833;27;20296;-74
2022/09/13 10:07:28;;;;;;;2.92;1.73;;;;;;;21.50;41.26;94429.91;5131456;27;20253;-79
2022/09/13 10:10:00;;;;;;;2.70;1.98;;;;;;;21.27;42.44;94424.91;5132438;27;20282;-75
2022/09/13 10:12:28;;;;;;;3.78;2.08;;;;;;;21.21;42.63;94432.00;5132140;27;20228;-74
2022/09/13 10:15:04;;;;;;;3.38;2.00;;;;;;;20.92;42.81;94419.47;5132456;27;20644;-74
2022/09/13 10:17:31;;;;;;;3.00;2.30;;;;;;;21.31;42.88;94418.59;5131274;27;20204;-75
2022/09/13 10:20:00;;;;;;;2.80;1.80;;;;;;;21.85;41.92;94415.13;5132565;27;20226;-73
2022/09/13 10:22:29;;;;;;;3.28;1.88;;;;;;;22.12;41.18;94422.84;5132325;27;20237;-77
2022/09/13 10:25:15;;;;;;;2.00;1.80;;;;;;;21.62;40.64;94420.38;5132521;27;20228;-74
2022/09/13 10:27:47;;;;;;;1.83;1.73;;;;;;;21.63;40.86;94419.19;5127963;27;20212;-73
2022/09/13 10:30:31;;;;;;;2.70;1.90;;;;;;;21.75;41.24;94415.94;5132309;27;20196;-74
2022/09/13 10:32:58;;;;;;;3.00;1.98;;;;;;;21.91;40.36;94407.97;5131356;27;20201;-74
2022/09/13 10:35:26;;;;;;;1.90;1.70;;;;;;;21.32;41.54;94409.91;5131399;27;20237;-74
2022/09/13 10:37:53;;;;;;;1.70;1.60;;;;;;;21.33;43.00;94408.72;5131527;27;20586;-74
2022/09/13 10:40:27;;;;;;;2.85;1.90;;;;;;;21.57;40.96;94405.06;5131547;27;20217;-74
2022/09/13 10:42:56;;;;;;;2.78;2.03;;;;;;;22.02;39.97;94401.59;5131123;27;20212;-74
2022/09/13 10:45:27;;;;;;;3.25;1.92;;;;;;;22.02;39.49;94396.09;5132048;27;20272;-76
2022/09/13 10:47:59;;;;;;;1.80;1.70;;;;;;;21.89;40.44;94395.75;5130862;27;20201;-73
2022/09/13 10:50:27;;;;;;;2.10;1.67;;;;;;;22.25;39.85;94379.75;5131570;27;20652;-74
2022/09/13 10:52:55;;;;;;;1.98;1.77;;;;;;;22.62;39.55;94374.25;5130905;27;20208;-73
2022/09/13 10:55:31;;;;;;;3.47;2.22;;;;;;;21.58;41.60;94400.34;5131233;27;20233;-74
2022/09/13 10:58:17;;;;;;;2.85;1.98;;;;;;;21.73;42.45;94396.25;5131874;27;20205;-74
2022/09/13 11:01:21;;;;;;;2.40;1.73;;;;;;;21.44;41.69;94383.88;5131409;27;20208;-75
2022/09/13 11:04:25;;;;;;;2.53;2.10;;;;;;;22.14;41.19;94381.81;5131303;27;20212;-74
2022/09/13 11:06:59;;;;;;;2.60;1.73;;;;;;;22.38;39.33;94383.56;5131524;27;20226;-73
2022/09/13 11:09:33;;;;;;;3.63;1.77;;;;;;;22.50;39.81;94371.22;5131240;27;20201;-73
2022/09/13 11:12:10;;;;;;;2.10;1.67;;;;;;;21.96;40.50;94377.22;5131227;27;20245;-78
2022/09/13 11:14:48;;;;;;;3.20;1.88;;;;;;;21.11;41.83;94385.19;5130524;27;20208;-74
2022/09/13 11:17:30;;;;;;;2.65;1.58;;;;;;;20.70;42.26;94390.44;5131063;27;20241;-76
2022/09/13 11:20:12;;;;;;;1.80;1.63;;;;;;;21.23;41.33;94385.53;5130630;27;20197;-75
2022/09/13 11:23:05;;;;;;;3.42;2.38;;;;;;;21.54;40.24;94388.53;5117999;27;20665;-75
2022/09/13 11:25:57;;;;;;;1.60;1.40;;;;;;;22.04;40.56;94366.13;5131169;27;20254;-74
2022/09/13 11:28:32;;;;;;;1.90;1.75;;;;;;;22.34;39.25;94369.81;5125431;27;20606;-75
2022/09/13 11:31:15;;;;;;;1.65;1.48;;;;;;;22.79;39.72;94355.16;5131244;27;20200;-74
2022/09/13 11:33:57;;;;;;;2.70;1.67;;;;;;;22.28;38.10;94365.13;5130248;27;20552;-75
2022/09/13 11:36:47;;;;;;;3.42;1.80;;;;;;;22.36;38.27;94350.06;5130869;27;20621;-75
2022/09/13 11:39:25;;;;;;;1.75;1.55;;;;;;;21.18;39.47;94366.63;5130968;27;20290;-75
2022/09/13 11:42:00;;;;;;;2.13;1.63;;;;;;;21.35;39.77;94356.75;5130738;27;20196;-76
2022/09/13 11:44:36;;;;;;;4.30;1.70;;;;;;;22.12;38.94;94351.09;5130545;27;20241;-73
2022/09/13 11:47:14;;;;;;;2.08;1.40;;;;;;;22.53;38.54;94351.88;5130618;27;20270;-74
2022/09/13 11:50:18;;;;;;;3.67;1.63;;;;;;;22.45;38.45;94358.66;5129825;27;20715;-75
2022/09/13 11:52:52;;;;;;;1.73;1.58;;;;;;;22.33;38.52;94353.66;5117714;27;20216;-78
2022/09/13 11:55:28;;;;;;;2.80;1.67;;;;;;;21.63;39.08;94366.81;5130412;27;20311;-74
2022/09/13 11:57:58;;;;;;;2.45;1.80;;;;;;;21.83;39.24;94358.78;5130704;27;20279;-74